Time;durP1;ratioP1;P1;durP2;ratioP2;P2;SDS_P1;SDS_P2;PMS_P1;PMS_P2;Temp;Humidity;BMP_temperature;BMP_pressure;BME280_temperature;BME280_humidity;BME280_pressure;Samples;Min_cycle;Max_cycle;Signal;HPM_P1;HPM_P2
2022/08/02 00:01:43;;;;;;;;;;;19.10;99.90;;;;;;5121181;28;19916;-76
2022/08/02 00:04:10;;;;;;;;;;;19.10;99.90;;;;;;5122092;28;19911;-75
2022/08/02 00:06:36;;;;;;;;;;;19.00;99.90;;;;;;5129449;28;19919;-76
2022/08/02 00:09:03;;;;;;;;;;;19.00;99.90;;;;;;5126161;28;20332;-80
2022/08/02 00:11:29;;;;;;;;;;;19.10;99.90;;;;;;5123043;28;19915;-75
2022/08/02 00:13:55;;;;;;;;;;;19.10;99.90;;;;;;5127624;28;19912;-75
2022/08/02 00:16:22;;;;;;;;;;;19.10;99.90;;;;;;5123690;28;20298;-75
2022/08/02 00:18:48;;;;;;;;;;;19.10;99.90;;;;;;5124383;28;19915;-79
2022/08/02 00:21:14;;;;;;;;;;;19.00;99.90;;;;;;5128005;28;19912;-75
2022/08/02 00:23:39;;;;;;;;;;;19.00;99.90;;;;;;5127231;28;20014;-76
2022/08/02 00:26:06;;;;;;;;;;;19.00;99.90;;;;;;5102788;28;19924;-76
2022/08/02 00:28:32;;;;;;;;;;;19.00;99.90;;;;;;5123658;28;19912;-76
2022/08/02 00:30:58;;;;;;;;;;;18.90;99.90;;;;;;5126297;28;19923;-75
2022/08/02 00:33:25;;;;;;;;;;;18.90;99.90;;;;;;5126819;28;20360;-76
2022/08/02 00:35:51;;;;;;;;;;;18.90;99.90;;;;;;5125480;28;19912;-76
2022/08/02 00:38:17;;;;;;;;;;;18.90;99.90;;;;;;5116259;28;20258;-75
2022/08/02 00:40:46;;;;;;;;;;;18.80;99.90;;;;;;5111893;28;19911;-75
2022/08/02 00:43:12;;;;;;;;;;;18.80;99.90;;;;;;5079778;28;19918;-75
2022/08/02 00:45:39;;;;;;;;;;;18.60;99.90;;;;;;5115063;28;19916;-75
2022/08/02 00:48:06;;;;;;;;;;;18.50;99.90;;;;;;5109969;28;19919;-76
2022/08/02 00:50:33;;;;;;;;;;;18.40;99.90;;;;;;5111798;28;19911;-76
2022/08/02 00:52:59;;;;;;;;;;;18.40;99.90;;;;;;5084905;28;19912;-75
2022/08/02 00:55:25;;;;;;;;;;;18.30;99.90;;;;;;5109649;28;20307;-75
2022/08/02 00:57:51;;;;;;;;;;;18.40;99.90;;;;;;5113980;28;19912;-78
2022/08/02 01:00:17;;;;;;;;;;;18.40;99.90;;;;;;5110152;28;20361;-75
2022/08/02 01:02:43;;;;;;;;;;;18.40;99.90;;;;;;5108450;28;20296;-75
2022/08/02 01:05:09;;;;;;;;;;;18.40;99.90;;;;;;5114691;28;19918;-76
2022/08/02 01:07:35;;;;;;;;;;;18.40;99.90;;;;;;5108519;28;19967;-76
2022/08/02 01:10:01;;;;;;;;;;;18.40;99.90;;;;;;5114285;28;19925;-75
2022/08/02 01:12:27;;;;;;;;;;;18.40;99.90;;;;;;5113393;28;19912;-76
2022/08/02 01:14:58;;;;;;;;;;;18.40;99.90;;;;;;5113211;28;19912;-77
2022/08/02 01:17:43;;;;;;;;;;;18.40;99.90;;;;;;5113283;28;19931;-76
2022/08/02 01:20:21;;;;;;;;;;;18.40;99.90;;;;;;5110965;28;19916;-76
2022/08/02 01:22:53;;;;;;;;;;;18.40;99.90;;;;;;5105795;28;19912;-83
2022/08/02 01:25:26;;;;;;;;;;;18.30;99.90;;;;;;5108272;28;19912;-76
2022/08/02 01:28:10;;;;;;;;;;;18.30;99.90;;;;;;5110009;28;19928;-76
2022/08/02 01:30:37;;;;;;;;;;;18.20;99.90;;;;;;5105895;28;19912;-77
2022/08/02 01:33:05;;;;;;;;;;;18.10;99.90;;;;;;5106766;28;19912;-77
2022/08/02 01:35:41;;;;;;;;;;;18.10;99.90;;;;;;5110154;28;19912;-77
2022/08/02 01:38:13;;;;;;;;;;;18.00;99.90;;;;;;5106930;28;19919;-76
2022/08/02 01:40:40;;;;;;;;;;;18.00;99.90;;;;;;5113112;28;19911;-76
2022/08/02 01:43:07;;;;;;;;;;;18.00;99.90;;;;;;5112235;28;19919;-75
2022/08/02 01:45:34;;;;;;;;;;;17.90;99.90;;;;;;5113222;28;20309;-76
2022/08/02 01:48:02;;;;;;;;;;;17.90;99.90;;;;;;5114243;28;20268;-76
2022/08/02 01:50:32;;;;;;;;;;;17.90;99.90;;;;;;5071068;28;19922;-76
2022/08/02 01:52:59;;;;;;;;;;;17.90;99.90;;;;;;5111959;28;19915;-75
2022/08/02 01:55:26;;;;;;;;;;;18.00;99.90;;;;;;5094717;28;19924;-75
2022/08/02 01:57:56;;;;;;;;;;;18.00;99.90;;;;;;5109971;28;20329;-75
2022/08/02 02:00:23;;;;;;;;;;;18.10;99.90;;;;;;5111721;28;20391;-76
2022/08/02 02:02:51;;;;;;;;;;;18.00;99.90;;;;;;5109213;28;19919;-76
2022/08/02 02:05:18;;;;;;;;;;;18.00;99.90;;;;;;5110998;28;19931;-76
2022/08/02 02:07:45;;;;;;;;;;;17.90;99.90;;;;;;5113676;28;19919;-78
2022/08/02 02:10:13;;;;;;;;;;;17.90;99.90;;;;;;5104727;28;19912;-76
2022/08/02 02:12:40;;;;;;;;;;;17.80;99.90;;;;;;5106790;28;19911;-77
2022/08/02 02:15:08;;;;;;;;;;;17.80;99.90;;;;;;5113031;28;19911;-76
2022/08/02 02:17:34;;;;;;;;;;;17.80;99.90;;;;;;5108062;28;19912;-77
2022/08/02 02:20:01;;;;;;;;;;;17.70;99.90;;;;;;5081080;28;20288;-76
2022/08/02 02:22:27;;;;;;;;;;;17.70;99.90;;;;;;5107828;28;19923;-77
2022/08/02 02:24:53;;;;;;;;;;;17.60;99.90;;;;;;5108754;28;19912;-77
2022/08/02 02:27:21;;;;;;;;;;;17.60;99.90;;;;;;5087411;28;19931;-77
2022/08/02 02:29:49;;;;;;;;;;;17.50;99.90;;;;;;5110890;28;19912;-76
2022/08/02 02:32:16;;;;;;;;;;;17.50;99.90;;;;;;5091660;28;19948;-77
2022/08/02 02:34:43;;;;;;;;;;;17.50;99.90;;;;;;5110855;28;19926;-75
2022/08/02 02:37:14;;;;;;;;;;;17.50;99.90;;;;;;5093577;28;19919;-76
2022/08/02 02:39:42;;;;;;;;;;;17.50;99.90;;;;;;5109651;28;20357;-76
2022/08/02 02:42:09;;;;;;;;;;;17.40;99.90;;;;;;5109189;28;19919;-77
2022/08/02 02:44:37;;;;;;;;;;;17.30;99.90;;;;;;5093591;28;19912;-77
2022/08/02 02:47:04;;;;;;;;;;;17.30;99.90;;;;;;5110018;28;19927;-78
2022/08/02 02:49:34;;;;;;;;;;;17.30;99.90;;;;;;5109146;28;19919;-76
2022/08/02 02:52:01;;;;;;;;;;;17.30;99.90;;;;;;5111605;28;19912;-82
2022/08/02 02:54:27;;;;;;;;;;;17.30;99.90;;;;;;5094755;28;19911;-77
2022/08/02 02:56:54;;;;;;;;;;;17.30;99.90;;;;;;5088080;28;19916;-77
2022/08/02 02:59:20;;;;;;;;;;;17.30;99.90;;;;;;5112582;28;20286;-77
2022/08/02 03:01:46;;;;;;;;;;;17.20;99.90;;;;;;5111059;28;20331;-77
2022/08/02 03:04:13;;;;;;;;;;;17.10;99.90;;;;;;5108761;28;19919;-76
2022/08/02 03:06:39;;;;;;;;;;;17.10;99.90;;;;;;5110711;28;19927;-76
2022/08/02 03:09:06;;;;;;;;;;;17.00;99.90;;;;;;5103483;28;19919;-76
2022/08/02 03:11:33;;;;;;;;;;;17.00;99.90;;;;;;5110771;28;20398;-76
2022/08/02 03:14:00;;;;;;;;;;;16.90;99.90;;;;;;5110151;28;19912;-76
2022/08/02 03:16:30;;;;;;;;;;;16.80;99.90;;;;;;5110317;28;19912;-76
2022/08/02 03:18:56;;;;;;;;;;;16.80;99.90;;;;;;5111914;28;19911;-76
2022/08/02 03:21:23;;;;;;;;;;;16.70;99.90;;;;;;5112329;28;19912;-76
2022/08/02 03:23:49;;;;;;;;;;;16.60;99.90;;;;;;5105426;28;19912;-76
2022/08/02 03:26:16;;;;;;;;;;;16.50;99.90;;;;;;5093764;28;19946;-77
2022/08/02 03:28:42;;;;;;;;;;;16.50;99.90;;;;;;5099897;28;19912;-76
2022/08/02 03:31:08;;;;;;;;;;;16.60;99.90;;;;;;5112059;28;19939;-77
2022/08/02 03:33:34;;;;;;;;;;;16.70;99.90;;;;;;5105635;28;19912;-76
2022/08/02 03:36:03;;;;;;;;;;;16.80;99.90;;;;;;5111207;28;19926;-77
2022/08/02 03:38:29;;;;;;;;;;;16.80;99.90;;;;;;5111732;28;19912;-77
2022/08/02 03:40:56;;;;;;;;;;;16.80;99.90;;;;;;5076532;28;19912;-77
2022/08/02 03:43:22;;;;;;;;;;;16.70;99.90;;;;;;5111321;28;20387;-76
2022/08/02 03:45:49;;;;;;;;;;;16.70;99.90;;;;;;5109201;28;19916;-77
2022/08/02 03:48:15;;;;;;;;;;;16.60;99.90;;;;;;5105940;28;19920;-76
2022/08/02 03:50:42;;;;;;;;;;;16.60;99.90;;;;;;5109447;28;19911;-76
2022/08/02 03:53:08;;;;;;;;;;;16.50;99.90;;;;;;5106338;28;19927;-76
2022/08/02 03:55:34;;;;;;;;;;;16.60;99.90;;;;;;5111075;28;19926;-76
2022/08/02 03:58:01;;;;;;;;;;;16.60;99.90;;;;;;5108587;28;19919;-77
2022/08/02 04:00:27;;;;;;;;;;;16.70;99.90;;;;;;5112066;28;20253;-76
2022/08/02 04:02:53;;;;;;;;;;;16.70;99.90;;;;;;5107752;28;19919;-82
2022/08/02 04:05:19;;;;;;;;;;;16.70;99.90;;;;;;5093728;28;20353;-77
2022/08/02 04:07:47;;;;;;;;;;;16.80;99.90;;;;;;5087790;28;19926;-78
2022/08/02 04:10:13;;;;;;;;;;;16.80;99.90;;;;;;5110740;28;19911;-78
2022/08/02 04:12:39;;;;;;;;;;;16.80;99.90;;;;;;5106741;28;19912;-77
2022/08/02 04:15:06;;;;;;;;;;;16.80;99.90;;;;;;5112249;28;20002;-77
2022/08/02 04:17:33;;;;;;;;;;;16.80;99.90;;;;;;5116448;28;20003;-77
2022/08/02 04:20:05;;;;;;;;;;;16.90;99.90;;;;;;5115805;28;19911;-77
2022/08/02 04:22:55;;;;;;;;;;;16.90;99.90;;;;;;5111337;28;19919;-82
2022/08/02 04:25:22;;;;;;;;;;;16.90;99.90;;;;;;5078724;28;19942;-77
2022/08/02 04:27:48;;;;;;;;;;;16.90;99.90;;;;;;5113612;28;19923;-77
2022/08/02 04:30:15;;;;;;;;;;;16.90;99.90;;;;;;5110116;28;19911;-76
2022/08/02 04:32:41;;;;;;;;;;;16.90;99.90;;;;;;5114426;28;19916;-76
2022/08/02 04:35:07;;;;;;;;;;;16.90;99.90;;;;;;5096429;28;20272;-77
2022/08/02 04:37:33;;;;;;;;;;;17.00;99.90;;;;;;5109751;28;19926;-77
2022/08/02 04:40:00;;;;;;;;;;;16.90;99.90;;;;;;5110345;28;19912;-77
2022/08/02 04:42:26;;;;;;;;;;;16.90;99.90;;;;;;5106375;28;20373;-77
2022/08/02 04:44:52;;;;;;;;;;;17.00;99.90;;;;;;5115130;28;19927;-86
2022/08/02 04:47:19;;;;;;;;;;;17.00;99.90;;;;;;5115227;28;20301;-78
2022/08/02 04:49:45;;;;;;;;;;;17.20;99.90;;;;;;5096030;28;19926;-77
2022/08/02 04:52:12;;;;;;;;;;;17.30;99.90;;;;;;5111200;28;19912;-78
2022/08/02 04:54:38;;;;;;;;;;;17.50;99.90;;;;;;5115335;28;19916;-78
2022/08/02 04:57:53;;;;;;;;;;;17.80;99.90;;;;;;5092449;28;20010;-78
2022/08/02 04:59:50;;;;;;;;;;;18.30;99.90;;;;;;5114304;28;19919;-79
2022/08/02 05:02:16;;;;;;;;;;;19.40;99.90;;;;;;5113674;28;19907;-80
2022/08/02 05:04:42;;;;;;;;;;;21.10;99.90;;;;;;5111268;28;19912;-84
2022/08/02 05:07:08;;;;;;;;;;;22.40;99.70;;;;;;5114936;28;19920;-78
2022/08/02 05:09:34;;;;;;;;;;;23.30;96.30;;;;;;5109580;28;20391;-79
2022/08/02 05:12:00;;;;;;;;;;;23.50;94.60;;;;;;5102912;28;20007;-81
2022/08/02 05:14:26;;;;;;;;;;;23.70;92.90;;;;;;5094216;28;20395;-79
2022/08/02 05:16:51;;;;;;;;;;;23.20;94.00;;;;;;5108021;28;19998;-80
2022/08/02 05:19:17;;;;;;;;;;;23.40;93.90;;;;;;5112767;28;20421;-80
2022/08/02 05:21:43;;;;;;;;;;;24.20;92.10;;;;;;5111050;28;20435;-84
2022/08/02 05:24:09;;;;;;;;;;;25.40;90.40;;;;;;5104916;28;19951;-80
2022/08/02 05:26:35;;;;;;;;;;;26.20;82.00;;;;;;5109223;28;19923;-79
2022/08/02 05:29:03;;;;;;;;;;;26.00;80.90;;;;;;5108875;28;20340;-79
2022/08/02 05:31:29;;;;;;;;;;;24.50;87.20;;;;;;5090693;28;20352;-82
2022/08/02 05:33:55;;;;;;;;;;;22.50;94.90;;;;;;5092168;28;19912;-76
2022/08/02 05:36:21;;;;;;;;;;;21.50;98.10;;;;;;5108504;28;19919;-77
2022/08/02 05:38:49;;;;;;;;;;;21.20;99.90;;;;;;5109925;28;19916;-79
2022/08/02 05:41:19;;;;;;;;;;;21.70;99.30;;;;;;5098447;28;19912;-79
2022/08/02 05:43:45;;;;;;;;;;;21.60;99.20;;;;;;5109682;28;19919;-77
2022/08/02 05:46:11;;;;;;;;;;;21.50;99.80;;;;;;5109985;28;20636;-77
2022/08/02 05:48:37;;;;;;;;;;;21.60;99.00;;;;;;5089943;28;19924;-77
2022/08/02 05:51:05;;;;;;;;;;;21.50;99.70;;;;;;5111588;28;19912;-77
2022/08/02 05:53:33;;;;;;;;;;;22.00;99.00;;;;;;5112461;28;19915;-79
2022/08/02 05:56:04;;;;;;;;;;;22.40;97.50;;;;;;5111058;28;19923;-79
2022/08/02 05:58:35;;;;;;;;;;;22.60;97.40;;;;;;5108703;28;19912;-79
2022/08/02 06:01:02;;;;;;;;;;;23.20;95.40;;;;;;5112649;28;19918;-78
2022/08/02 06:03:35;;;;;;;;;;;23.40;94.10;;;;;;5110838;28;20292;-77
2022/08/02 06:06:01;;;;;;;;;;;23.30;94.70;;;;;;5112979;28;19919;-77
2022/08/02 06:08:34;;;;;;;;;;;23.70;93.30;;;;;;5113276;28;19948;-77
2022/08/02 06:11:01;;;;;;;;;;;24.10;92.00;;;;;;5111768;28;19912;-77
2022/08/02 06:13:28;;;;;;;;;;;24.10;92.00;;;;;;5112264;28;19915;-76
2022/08/02 06:15:58;;;;;;;;;;;23.70;92.30;;;;;;5109400;28;19938;-77
2022/08/02 06:18:25;;;;;;;;;;;23.40;93.00;;;;;;5113201;28;19998;-77
2022/08/02 06:20:52;;;;;;;;;;;23.50;92.70;;;;;;5108473;28;19912;-77
2022/08/02 06:23:20;;;;;;;;;;;23.50;92.40;;;;;;5102410;28;19916;-76
2022/08/02 06:25:47;;;;;;;;;;;23.80;92.20;;;;;;5108780;28;19924;-77
2022/08/02 06:28:14;;;;;;;;;;;24.50;90.10;;;;;;5101378;28;19920;-77
2022/08/02 06:30:41;;;;;;;;;;;24.10;90.80;;;;;;5109341;28;19919;-77
2022/08/02 06:33:07;;;;;;;;;;;24.70;89.40;;;;;;5066751;28;19916;-78
2022/08/02 06:35:43;;;;;;;;;;;25.10;86.10;;;;;;5104063;28;19919;-76
2022/08/02 06:38:11;;;;;;;;;;;25.60;83.40;;;;;;5102739;28;19912;-79
2022/08/02 06:40:54;;;;;;;;;;;24.90;85.40;;;;;;5107045;28;20388;-79
2022/08/02 06:43:20;;;;;;;;;;;24.40;87.40;;;;;;5111331;28;19934;-78
2022/08/02 06:45:46;;;;;;;;;;;23.50;90.80;;;;;;5107233;28;19930;-77
2022/08/02 06:48:12;;;;;;;;;;;23.10;92.60;;;;;;5109367;28;20315;-78
2022/08/02 06:50:40;;;;;;;;;;;22.90;93.00;;;;;;5112317;28;19916;-77
2022/08/02 06:53:07;;;;;;;;;;;22.90;94.30;;;;;;5107208;28;19942;-76
2022/08/02 06:55:33;;;;;;;;;;;23.10;93.50;;;;;;5107283;28;20391;-77
2022/08/02 06:57:59;;;;;;;;;;;23.10;93.10;;;;;;5110651;28;20007;-76
2022/08/02 07:00:27;;;;;;;;;;;23.30;92.80;;;;;;5093982;28;19911;-77
2022/08/02 07:02:53;;;;;;;;;;;23.10;93.50;;;;;;5111081;28;20349;-77
2022/08/02 07:05:20;;;;;;;;;;;23.00;93.50;;;;;;5090252;28;19927;-76
2022/08/02 07:07:46;;;;;;;;;;;23.40;93.10;;;;;;5093122;28;19920;-76
2022/08/02 07:10:13;;;;;;;;;;;23.50;92.30;;;;;;5093893;28;20003;-76
2022/08/02 07:12:39;;;;;;;;;;;23.40;92.60;;;;;;5106667;28;19919;-76
2022/08/02 07:15:06;;;;;;;;;;;24.10;91.10;;;;;;5111283;28;20010;-76
2022/08/02 07:17:33;;;;;;;;;;;24.50;90.00;;;;;;5111551;28;19919;-76
2022/08/02 07:19:59;;;;;;;;;;;25.50;84.70;;;;;;5108570;28;19916;-77
2022/08/02 07:22:26;;;;;;;;;;;25.70;81.70;;;;;;5110757;28;19922;-77
2022/08/02 07:24:54;;;;;;;;;;;26.00;80.50;;;;;;5111038;28;19919;-76
2022/08/02 07:27:20;;;;;;;;;;;26.60;79.60;;;;;;5110638;28;19946;-76
2022/08/02 07:29:46;;;;;;;;;;;27.30;71.80;;;;;;5112025;28;19919;-77
2022/08/02 07:32:16;;;;;;;;;;;26.50;74.10;;;;;;5107214;28;20275;-77
2022/08/02 07:34:42;;;;;;;;;;;25.80;75.80;;;;;;5111266;28;20314;-77
2022/08/02 07:37:09;;;;;;;;;;;25.80;76.60;;;;;;5111850;28;19916;-77
2022/08/02 07:39:35;;;;;;;;;;;26.40;75.80;;;;;;5106971;28;19916;-78
2022/08/02 07:42:01;;;;;;;;;;;26.10;73.80;;;;;;5090702;28;19922;-78
2022/08/02 07:44:31;;;;;;;;;;;25.90;74.70;;;;;;5110339;28;19912;-77
2022/08/02 07:46:57;;;;;;;;;;;26.30;73.20;;;;;;5109440;28;19920;-78
2022/08/02 07:49:23;;;;;;;;;;;27.00;70.00;;;;;;5089663;28;19912;-77
2022/08/02 07:51:49;;;;;;;;;;;27.40;68.10;;;;;;5112937;28;20269;-78
2022/08/02 07:54:15;;;;;;;;;;;27.10;68.50;;;;;;5095775;28;19912;-83
2022/08/02 07:56:41;;;;;;;;;;;27.60;66.10;;;;;;5109608;28;19947;-77
2022/08/02 07:59:09;;;;;;;;;;;28.00;65.00;;;;;;5115551;28;20011;-76
2022/08/02 08:01:35;;;;;;;;;;;29.10;58.70;;;;;;5110387;28;19920;-76
2022/08/02 08:04:02;;;;;;;;;;;29.40;56.80;;;;;;5103586;28;19920;-76
2022/08/02 08:06:29;;;;;;;;;;;29.00;57.10;;;;;;5101028;28;19916;-77
2022/08/02 08:08:56;;;;;;;;;;;29.30;55.80;;;;;;5113979;28;20273;-81
2022/08/02 08:11:22;;;;;;;;;;;28.40;54.90;;;;;;5110712;28;19912;-77
2022/08/02 08:13:48;;;;;;;;;;;28.20;55.50;;;;;;5114959;28;19919;-77
2022/08/02 08:16:14;;;;;;;;;;;27.80;56.60;;;;;;5112367;28;19916;-75
2022/08/02 08:18:40;;;;;;;;;;;28.00;56.80;;;;;;5110007;28;19918;-75
2022/08/02 08:21:06;;;;;;;;;;;27.70;54.30;;;;;;5115087;28;19920;-74
2022/08/02 08:23:32;;;;;;;;;;;27.10;55.70;;;;;;5110564;28;19931;-75
2022/08/02 08:25:58;;;;;;;;;;;27.60;53.80;;;;;;5114537;28;19924;-77
2022/08/02 08:28:24;;;;;;;;;;;28.30;52.30;;;;;;5112901;28;19924;-74
2022/08/02 08:30:50;;;;;;;;;;;28.90;49.60;;;;;;5110569;28;19913;-74
2022/08/02 08:33:16;;;;;;;;;;;28.80;49.10;;;;;;5109554;28;20265;-74
2022/08/02 08:35:42;;;;;;;;;;;27.70;49.20;;;;;;5112390;28;19912;-74
2022/08/02 08:38:08;;;;;;;;;;;28.10;50.30;;;;;;5107895;28;19943;-75
2022/08/02 08:40:34;;;;;;;;;;;27.70;50.80;;;;;;5114643;28;19912;-75
2022/08/02 08:43:00;;;;;;;;;;;27.60;52.10;;;;;;5111274;28;19915;-77
2022/08/02 08:45:26;;;;;;;;;;;27.90;51.50;;;;;;5111223;28;19912;-75
2022/08/02 08:47:59;;;;;;;;;;;28.50;50.40;;;;;;5113496;28;19959;-74
2022/08/02 08:50:25;;;;;;;;;;;27.80;50.90;;;;;;5111261;28;19912;-75
2022/08/02 08:52:51;;;;;;;;;;;28.30;52.50;;;;;;5076814;28;19909;-75
2022/08/02 08:55:20;;;;;;;;;;;29.10;49.40;;;;;;5108234;28;19972;-75
2022/08/02 08:57:46;;;;;;;;;;;28.20;49.80;;;;;;5089448;28;20462;-75
2022/08/02 09:00:14;;;;;;;;;;;28.70;51.70;;;;;;5113323;28;19919;-75
2022/08/02 09:02:41;;;;;;;;;;;29.30;49.00;;;;;;5113584;28;19912;-75
2022/08/02 09:05:09;;;;;;;;;;;29.80;46.60;;;;;;5096257;28;19919;-75
2022/08/02 09:07:35;;;;;;;;;;;30.10;46.90;;;;;;5110981;28;19920;-75
2022/08/02 09:10:01;;;;;;;;;;;29.40;47.30;;;;;;5106937;28;19912;-75
2022/08/02 09:12:27;;;;;;;;;;;29.00;47.30;;;;;;5113808;28;19911;-75
2022/08/02 09:14:53;;;;;;;;;;;29.30;49.20;;;;;;5104386;28;20414;-76
2022/08/02 09:17:19;;;;;;;;;;;29.50;47.00;;;;;;5089969;28;20299;-76
2022/08/02 09:19:45;;;;;;;;;;;29.60;46.80;;;;;;5107745;28;19911;-74
2022/08/02 09:22:12;;;;;;;;;;;29.50;46.00;;;;;;5106930;28;19918;-75
2022/08/02 09:24:43;;;;;;;;;;;29.30;47.20;;;;;;5104816;28;19930;-75
2022/08/02 09:27:13;;;;;;;;;;;29.50;46.30;;;;;;5108539;28;19932;-76
2022/08/02 09:29:39;;;;;;;;;;;29.70;46.20;;;;;;5097685;28;19935;-74
2022/08/02 09:32:05;;;;;;;;;;;29.30;45.70;;;;;;5106727;28;19919;-75
2022/08/02 09:34:44;;;;;;;;;;;28.90;46.20;;;;;;5107322;28;20269;-74
2022/08/02 09:37:20;;;;;;;;;;;28.80;46.60;;;;;;5110270;28;19911;-73
2022/08/02 09:39:46;;;;;;;;;;;28.80;46.20;;;;;;5095590;28;20372;-73
2022/08/02 09:42:14;;;;;;;;;;;28.70;46.30;;;;;;5113712;28;19912;-73
2022/08/02 09:44:51;;;;;;;;;;;29.30;45.60;;;;;;5106856;28;19992;-73
2022/08/02 09:47:17;;;;;;;;;;;29.90;45.90;;;;;;5109067;28;20091;-74
2022/08/02 09:49:47;;;;;;;;;;;29.80;45.60;;;;;;5095599;28;19916;-74
2022/08/02 09:52:13;;;;;;;;;;;30.20;46.10;;;;;;5112915;28;19908;-75
2022/08/02 09:54:40;;;;;;;;;;;29.20;46.10;;;;;;5091651;28;19982;-73
2022/08/02 09:57:06;;;;;;;;;;;29.20;46.90;;;;;;5111939;28;19926;-74
2022/08/02 09:59:32;;;;;;;;;;;29.80;48.60;;;;;;5112714;28;19911;-74
2022/08/02 10:01:59;;;;;;;;;;;30.20;45.00;;;;;;5106317;28;20268;-75
2022/08/02 10:04:29;;;;;;;;;;;29.80;47.00;;;;;;5103545;28;19912;-74
2022/08/02 10:06:55;;;;;;;;;;;30.40;47.00;;;;;;5111793;28;19912;-75
2022/08/02 10:09:22;;;;;;;;;;;30.50;47.20;;;;;;5095024;28;19926;-74
2022/08/02 10:11:48;;;;;;;;;;;30.90;46.90;;;;;;5102591;28;20021;-75
2022/08/02 10:14:14;;;;;;;;;;;30.50;45.40;;;;;;5093272;28;20344;-75
2022/08/02 10:16:41;;;;;;;;;;;29.50;46.00;;;;;;5113760;28;19912;-74
2022/08/02 10:19:08;;;;;;;;;;;29.70;46.50;;;;;;5112637;28;19926;-72
2022/08/02 10:21:44;;;;;;;;;;;30.20;46.20;;;;;;5113472;28;19919;-74
2022/08/02 10:24:12;;;;;;;;;;;30.50;46.30;;;;;;5108141;28;19912;-75
2022/08/02 10:26:39;;;;;;;;;;;29.90;46.00;;;;;;5112943;28;19930;-74
2022/08/02 10:29:07;;;;;;;;;;;29.80;47.90;;;;;;5108518;28;19915;-73
2022/08/02 10:31:45;;;;;;;;;;;29.60;46.80;;;;;;5112291;28;19916;-74
2022/08/02 10:34:12;;;;;;;;;;;29.70;47.60;;;;;;5111216;28;19919;-74
2022/08/02 10:36:39;;;;;;;;;;;29.40;47.30;;;;;;5102540;28;20284;-74
2022/08/02 10:39:06;;;;;;;;;;;28.90;47.70;;;;;;5106746;28;20300;-74
2022/08/02 10:41:39;;;;;;;;;;;28.40;49.10;;;;;;5112595;28;19919;-74
2022/08/02 10:44:05;;;;;;;;;;;28.50;48.70;;;;;;5108448;28;20408;-75
2022/08/02 10:46:31;;;;;;;;;;;28.70;49.20;;;;;;5111015;28;19919;-75
2022/08/02 10:49:00;;;;;;;;;;;28.70;48.80;;;;;;5103420;28;20273;-76
2022/08/02 10:51:45;;;;;;;;;;;28.60;49.20;;;;;;5112615;28;19922;-76
2022/08/02 10:54:16;;;;;;;;;;;28.90;47.40;;;;;;5091509;28;19919;-75
2022/08/02 10:56:46;;;;;;;;;;;28.50;47.90;;;;;;5113283;28;19916;-74
2022/08/02 10:59:38;;;;;;;;;;;28.40;47.80;;;;;;5108075;28;19919;-77
2022/08/02 11:02:04;;;;;;;;;;;28.50;47.40;;;;;;5102125;28;19912;-76
2022/08/02 11:04:50;;;;;;;;;;;28.20;47.70;;;;;;5105810;28;19912;-74
2022/08/02 11:07:17;;;;;;;;;;;28.40;48.60;;;;;;5108181;28;20304;-75
2022/08/02 11:09:44;;;;;;;;;;;28.50;48.30;;;;;;5110136;28;19923;-75
2022/08/02 11:12:12;;;;;;;;;;;28.60;49.50;;;;;;5107639;28;19919;-78
2022/08/02 11:14:39;;;;;;;;;;;28.70;48.70;;;;;;5107222;28;19912;-75
2022/08/02 11:17:12;;;;;;;;;;;29.00;48.40;;;;;;5110734;28;19912;-75
2022/08/02 11:19:57;;;;;;;;;;;28.60;47.50;;;;;;5092310;28;19912;-75
2022/08/02 11:22:23;;;;;;;;;;;28.80;48.20;;;;;;5103807;28;19919;-75
2022/08/02 11:24:49;;;;;;;;;;;29.10;48.20;;;;;;5108410;28;19916;-76
2022/08/02 11:27:16;;;;;;;;;;;29.20;47.50;;;;;;5108023;28;19924;-74
2022/08/02 11:29:44;;;;;;;;;;;29.50;48.90;;;;;;5110629;28;19923;-75
2022/08/02 11:32:23;;;;;;;;;;;29.50;47.10;;;;;;5108014;28;19916;-75
2022/08/02 11:34:50;;;;;;;;;;;29.50;47.10;;;;;;5111682;28;19923;-75
2022/08/02 11:37:34;;;;;;;;;;;29.60;46.40;;;;;;5111968;28;19916;-75
2022/08/02 11:40:01;;;;;;;;;;;29.80;46.80;;;;;;5111843;28;20336;-80
2022/08/02 11:42:30;;;;;;;;;;;29.50;47.10;;;;;;5109000;28;20638;-75
2022/08/02 11:44:57;;;;;;;;;;;29.20;47.00;;;;;;5100241;28;19919;-74
2022/08/02 11:47:23;;;;;;;;;;;29.20;47.50;;;;;;5108242;28;20362;-75
2022/08/02 11:49:48;;;;;;;;;;;29.60;48.10;;;;;;5109370;28;19919;-75
2022/08/02 11:52:14;;;;;;;;;;;30.20;47.10;;;;;;5098213;28;19919;-75
2022/08/02 11:54:41;;;;;;;;;;;30.50;46.10;;;;;;5109402;28;19938;-75
2022/08/02 11:57:10;;;;;;;;;;;29.90;47.40;;;;;;5107414;28;19942;-75
2022/08/02 11:59:40;;;;;;;;;;;29.80;46.80;;;;;;5102282;28;19938;-76
2022/08/02 12:02:06;;;;;;;;;;;29.80;47.30;;;;;;5101743;28;20377;-77
2022/08/02 12:04:33;;;;;;;;;;;29.50;46.50;;;;;;5101666;28;19913;-76
2022/08/02 12:07:00;;;;;;;;;;;29.80;47.50;;;;;;5101749;28;19917;-75
2022/08/02 12:09:26;;;;;;;;;;;30.10;46.40;;;;;;5099830;28;19923;-75
2022/08/02 12:11:53;;;;;;;;;;;29.80;45.60;;;;;;5109902;28;19916;-76
2022/08/02 12:14:19;;;;;;;;;;;29.50;46.50;;;;;;5110513;28;19915;-76
2022/08/02 12:19:31;;;;;;;;;;;29.20;46.70;;;;;;5106011;28;19913;-75
2022/08/02 12:22:11;;;;;;;;;;;29.70;46.60;;;;;;5108742;28;19912;-75
2022/08/02 12:24:37;;;;;;;;;;;30.20;46.00;;;;;;5105274;28;19911;-76
2022/08/02 12:27:04;;;;;;;;;;;30.00;45.90;;;;;;5100605;28;19924;-76
2022/08/02 12:29:34;;;;;;;;;;;30.30;46.20;;;;;;5109351;28;19931;-74
2022/08/02 12:32:03;;;;;;;;;;;30.40;45.70;;;;;;5093287;28;20361;-75
2022/08/02 12:34:30;;;;;;;;;;;30.10;45.80;;;;;;5108096;28;20388;-75
2022/08/02 12:36:56;;;;;;;;;;;30.50;46.20;;;;;;5110723;28;20388;-75
2022/08/02 12:39:32;;;;;;;;;;;30.50;45.30;;;;;;5105748;28;19919;-75
2022/08/02 12:41:58;;;;;;;;;;;30.30;45.50;;;;;;5105482;28;20365;-75
2022/08/02 12:44:24;;;;;;;;;;;30.10;44.80;;;;;;5108279;28;19919;-75
2022/08/02 12:47:04;;;;;;;;;;;29.90;45.10;;;;;;5108369;28;19951;-77
2022/08/02 12:49:30;;;;;;;;;;;30.10;45.70;;;;;;5113402;28;19916;-75
2022/08/02 12:51:56;;;;;;;;;;;30.30;44.00;;;;;;5109666;28;19920;-76
2022/08/02 12:54:23;;;;;;;;;;;30.50;45.30;;;;;;5107925;28;19920;-75
2022/08/02 12:56:49;;;;;;;;;;;30.60;44.60;;;;;;5113821;28;19920;-75
2022/08/02 12:59:16;;;;;;;;;;;30.20;44.00;;;;;;5114764;28;19912;-76
2022/08/02 13:01:44;;;;;;;;;;;29.30;43.90;;;;;;5109246;28;19918;-75
2022/08/02 13:04:10;;;;;;;;;;;28.90;45.00;;;;;;5104965;28;20350;-74
2022/08/02 13:06:36;;;;;;;;;;;29.10;44.80;;;;;;5108262;28;19924;-74
2022/08/02 13:09:10;;;;;;;;;;;29.20;45.00;;;;;;5114260;28;19916;-78
2022/08/02 13:11:36;;;;;;;;;;;29.70;45.20;;;;;;5114594;28;19923;-75
2022/08/02 13:14:02;;;;;;;;;;;30.30;44.70;;;;;;5112065;28;19915;-77
2022/08/02 13:16:30;;;;;;;;;;;30.30;44.80;;;;;;5113393;28;20287;-76
2022/08/02 13:18:56;;;;;;;;;;;30.20;44.50;;;;;;5111813;28;19912;-75
2022/08/02 13:21:21;;;;;;;;;;;30.20;44.50;;;;;;5113204;28;20533;-76
2022/08/02 13:23:47;;;;;;;;;;;30.10;44.60;;;;;;5107048;28;19959;-76
2022/08/02 13:26:13;;;;;;;;;;;30.30;44.70;;;;;;5112878;28;19924;-76
2022/08/02 13:28:41;;;;;;;;;;;30.00;43.70;;;;;;5112442;28;19919;-77
2022/08/02 13:31:07;;;;;;;;;;;29.90;43.30;;;;;;5107590;28;19916;-75
2022/08/02 13:33:33;;;;;;;;;;;30.00;44.60;;;;;;5112877;28;19916;-76
2022/08/02 13:35:59;;;;;;;;;;;30.30;44.00;;;;;;5109466;28;19916;-75
2022/08/02 13:38:25;;;;;;;;;;;30.60;44.20;;;;;;5110336;28;19919;-76
2022/08/02 13:41:11;;;;;;;;;;;30.80;44.20;;;;;;5105918;28;19938;-75
2022/08/02 13:43:37;;;;;;;;;;;31.20;43.40;;;;;;5104339;28;19912;-75
2022/08/02 13:46:04;;;;;;;;;;;31.40;43.20;;;;;;5108090;28;19919;-76
2022/08/02 13:48:30;;;;;;;;;;;31.00;42.70;;;;;;5110427;28;19920;-75
2022/08/02 13:50:56;;;;;;;;;;;30.70;43.30;;;;;;5103458;28;20281;-74
2022/08/02 13:53:22;;;;;;;;;;;30.80;43.70;;;;;;5106921;28;19943;-74
2022/08/02 13:55:48;;;;;;;;;;;31.20;42.90;;;;;;5105073;28;19916;-75
2022/08/02 13:58:14;;;;;;;;;;;31.00;43.20;;;;;;5103603;28;19912;-75
2022/08/02 14:00:40;;;;;;;;;;;31.00;42.80;;;;;;5078620;28;19923;-75
2022/08/02 14:03:07;;;;;;;;;;;31.00;42.80;;;;;;5103987;28;19919;-76
2022/08/02 14:05:40;;;;;;;;;;;31.00;43.10;;;;;;5109314;28;19916;-76
2022/08/02 14:08:07;;;;;;;;;;;30.90;42.40;;;;;;5108776;28;19916;-77
2022/08/02 14:10:33;;;;;;;;;;;30.60;42.10;;;;;;5105108;28;19923;-76
2022/08/02 14:12:59;;;;;;;;;;;30.70;43.00;;;;;;5107301;28;19915;-79
2022/08/02 14:15:25;;;;;;;;;;;30.80;42.80;;;;;;5107143;28;19969;-76
2022/08/02 14:17:51;;;;;;;;;;;31.00;43.00;;;;;;5104867;28;19912;-75
2022/08/02 14:20:17;;;;;;;;;;;30.60;41.90;;;;;;5105081;28;19922;-74
2022/08/02 14:22:43;;;;;;;;;;;30.60;42.10;;;;;;5103885;28;19912;-75